sensor_id;sensor_type;location;lat;lon;timestamp;P1;durP1;ratioP1;P2;durP2;ratioP2
9392;SDS011;4736;52.508;13.422;2023-03-14T00:01:56;2.80;;;2.80;;
9392;SDS011;4736;52.508;13.422;2023-03-14T00:04:59;3.20;;;3.10;;
9392;SDS011;4736;52.508;13.422;2023-03-14T00:08:03;3.13;;;2.97;;
9392;SDS011;4736;52.508;13.422;2023-03-14T00:11:09;3.40;;;3.30;;
9392;SDS011;4736;52.508;13.422;2023-03-14T00:14:14;3.50;;;3.30;;
9392;SDS011;4736;52.508;13.422;2023-03-14T00:17:18;3.03;;;2.83;;
9392;SDS011;4736;52.508;13.422;2023-03-14T00:20:21;3.00;;;2.90;;
9392;SDS011;4736;52.508;13.422;2023-03-14T00:23:24;2.90;;;2.90;;
9392;SDS011;4736;52.508;13.422;2023-03-14T00:26:28;3.50;;;3.30;;
9392;SDS011;4736;52.508;13.422;2023-03-14T00:29:31;3.07;;;2.97;;
9392;SDS011;4736;52.508;13.422;2023-03-14T00:32:36;2.77;;;2.67;;
9392;SDS011;4736;52.508;13.422;2023-03-14T00:35:39;2.80;;;2.80;;
9392;SDS011;4736;52.508;13.422;2023-03-14T00:38:43;2.70;;;2.70;;
9392;SDS011;4736;52.508;13.422;2023-03-14T00:41:49;3.23;;;3.13;;
9392;SDS011;4736;52.508;13.422;2023-03-14T00:44:52;3.00;;;2.87;;
9392;SDS011;4736;52.508;13.422;2023-03-14T00:47:58;3.40;;;3.30;;
9392;SDS011;4736;52.508;13.422;2023-03-14T00:51:01;3.30;;;3.20;;
9392;SDS011;4736;52.508;13.422;2023-03-14T00:54:06;3.63;;;3.53;;
9392;SDS011;4736;52.508;13.422;2023-03-14T00:57:10;3.07;;;2.97;;
9392;SDS011;4736;52.508;13.422;2023-03-14T01:00:14;3.30;;;3.10;;
9392;SDS011;4736;52.508;13.422;2023-03-14T01:03:17;3.03;;;2.80;;
9392;SDS011;4736;52.508;13.422;2023-03-14T01:06:21;3.30;;;3.10;;
9392;SDS011;4736;52.508;13.422;2023-03-14T01:09:25;3.67;;;3.57;;
9392;SDS011;4736;52.508;13.422;2023-03-14T01:12:30;3.03;;;2.93;;
9392;SDS011;4736;52.508;13.422;2023-03-14T01:15:33;3.07;;;2.97;;
9392;SDS011;4736;52.508;13.422;2023-03-14T01:18:37;3.47;;;3.27;;
9392;SDS011;4736;52.508;13.422;2023-03-14T01:21:42;3.20;;;3.03;;
9392;SDS011;4736;52.508;13.422;2023-03-14T01:24:45;3.10;;;3.00;;
9392;SDS011;4736;52.508;13.422;2023-03-14T01:27:50;2.83;;;2.83;;
9392;SDS011;4736;52.508;13.422;2023-03-14T01:30:53;3.10;;;2.97;;
9392;SDS011;4736;52.508;13.422;2023-03-14T01:33:56;2.93;;;2.83;;
9392;SDS011;4736;52.508;13.422;2023-03-14T01:36:59;2.93;;;2.83;;
9392;SDS011;4736;52.508;13.422;2023-03-14T01:40:02;3.00;;;2.90;;
9392;SDS011;4736;52.508;13.422;2023-03-14T01:43:13;2.60;;;2.60;;
9392;SDS011;4736;52.508;13.422;2023-03-14T01:46:22;2.70;;;2.63;;
9392;SDS011;4736;52.508;13.422;2023-03-14T01:49:36;2.67;;;2.53;;
9392;SDS011;4736;52.508;13.422;2023-03-14T01:52:40;2.80;;;2.60;;
9392;SDS011;4736;52.508;13.422;2023-03-14T01:55:46;2.70;;;2.70;;
9392;SDS011;4736;52.508;13.422;2023-03-14T01:58:51;2.63;;;2.63;;
9392;SDS011;4736;52.508;13.422;2023-03-14T02:01:55;2.57;;;2.57;;
9392;SDS011;4736;52.508;13.422;2023-03-14T02:04:58;2.70;;;2.50;;
9392;SDS011;4736;52.508;13.422;2023-03-14T02:08:04;3.00;;;2.90;;
9392;SDS011;4736;52.508;13.422;2023-03-14T02:11:10;2.47;;;2.47;;
9392;SDS011;4736;52.508;13.422;2023-03-14T02:14:16;2.67;;;2.57;;
9392;SDS011;4736;52.508;13.422;2023-03-14T02:17:27;2.50;;;2.40;;
9392;SDS011;4736;52.508;13.422;2023-03-14T02:20:32;2.60;;;2.60;;
9392;SDS011;4736;52.508;13.422;2023-03-14T02:23:43;3.00;;;2.80;;
9392;SDS011;4736;52.508;13.422;2023-03-14T02:27:09;2.50;;;2.50;;
9392;SDS011;4736;52.508;13.422;2023-03-14T02:30:14;2.67;;;2.67;;
9392;SDS011;4736;52.508;13.422;2023-03-14T02:33:21;2.70;;;2.70;;
9392;SDS011;4736;52.508;13.422;2023-03-14T02:36:26;2.50;;;2.50;;
9392;SDS011;4736;52.508;13.422;2023-03-14T02:39:31;2.40;;;2.40;;
9392;SDS011;4736;52.508;13.422;2023-03-14T02:42:40;3.07;;;2.80;;
9392;SDS011;4736;52.508;13.422;2023-03-14T02:45:44;2.50;;;2.50;;
9392;SDS011;4736;52.508;13.422;2023-03-14T02:48:49;2.60;;;2.60;;
9392;SDS011;4736;52.508;13.422;2023-03-14T02:51:57;2.30;;;2.30;;
9392;SDS011;4736;52.508;13.422;2023-03-14T02:55:00;2.70;;;2.60;;
9392;SDS011;4736;52.508;13.422;2023-03-14T02:58:06;2.70;;;2.70;;
9392;SDS011;4736;52.508;13.422;2023-03-14T03:01:09;2.60;;;2.60;;
9392;SDS011;4736;52.508;13.422;2023-03-14T03:04:12;2.57;;;2.57;;
9392;SDS011;4736;52.508;13.422;2023-03-14T03:07:15;2.80;;;2.70;;
9392;SDS011;4736;52.508;13.422;2023-03-14T03:10:19;2.50;;;2.50;;
9392;SDS011;4736;52.508;13.422;2023-03-14T03:13:24;2.57;;;2.57;;
9392;SDS011;4736;52.508;13.422;2023-03-14T03:16:29;2.70;;;2.57;;
9392;SDS011;4736;52.508;13.422;2023-03-14T03:19:32;2.80;;;2.70;;
9392;SDS011;4736;52.508;13.422;2023-03-14T03:22:36;2.77;;;2.67;;
9392;SDS011;4736;52.508;13.422;2023-03-14T03:25:40;2.53;;;2.43;;
9392;SDS011;4736;52.508;13.422;2023-03-14T03:28:47;2.90;;;2.77;;
9392;SDS011;4736;52.508;13.422;2023-03-14T03:31:53;2.80;;;2.60;;
9392;SDS011;4736;52.508;13.422;2023-03-14T03:34:57;3.03;;;2.93;;
9392;SDS011;4736;52.508;13.422;2023-03-14T03:38:00;2.63;;;2.40;;
9392;SDS011;4736;52.508;13.422;2023-03-14T03:41:04;2.73;;;2.43;;
9392;SDS011;4736;52.508;13.422;2023-03-14T03:44:10;5.00;;;2.80;;
9392;SDS011;4736;52.508;13.422;2023-03-14T03:47:14;2.53;;;2.43;;
9392;SDS011;4736;52.508;13.422;2023-03-14T03:50:17;2.50;;;2.40;;
9392;SDS011;4736;52.508;13.422;2023-03-14T03:53:20;2.20;;;2.20;;
9392;SDS011;4736;52.508;13.422;2023-03-14T03:56:33;2.77;;;2.57;;
9392;SDS011;4736;52.508;13.422;2023-03-14T03:59:38;2.50;;;2.50;;
9392;SDS011;4736;52.508;13.422;2023-03-14T04:02:42;2.20;;;2.20;;
9392;SDS011;4736;52.508;13.422;2023-03-14T04:05:46;2.60;;;2.50;;
9392;SDS011;4736;52.508;13.422;2023-03-14T04:08:50;2.30;;;2.30;;
9392;SDS011;4736;52.508;13.422;2023-03-14T04:11:53;2.47;;;2.47;;
9392;SDS011;4736;52.508;13.422;2023-03-14T04:14:57;2.43;;;2.43;;
9392;SDS011;4736;52.508;13.422;2023-03-14T04:18:01;2.00;;;2.00;;
9392;SDS011;4736;52.508;13.422;2023-03-14T04:21:04;2.70;;;2.70;;
9392;SDS011;4736;52.508;13.422;2023-03-14T04:24:08;2.57;;;2.57;;
9392;SDS011;4736;52.508;13.422;2023-03-14T04:27:13;2.30;;;2.30;;
9392;SDS011;4736;52.508;13.422;2023-03-14T04:30:18;2.40;;;2.40;;
9392;SDS011;4736;52.508;13.422;2023-03-14T04:33:21;2.33;;;2.33;;
9392;SDS011;4736;52.508;13.422;2023-03-14T04:36:26;2.57;;;2.57;;
9392;SDS011;4736;52.508;13.422;2023-03-14T04:39:29;2.47;;;2.47;;
9392;SDS011;4736;52.508;13.422;2023-03-14T04:42:32;2.40;;;2.40;;
9392;SDS011;4736;52.508;13.422;2023-03-14T04:45:37;2.43;;;2.37;;
9392;SDS011;4736;52.508;13.422;2023-03-14T04:48:44;2.40;;;2.40;;
9392;SDS011;4736;52.508;13.422;2023-03-14T04:51:47;2.90;;;2.90;;
9392;SDS011;4736;52.508;13.422;2023-03-14T04:54:53;2.33;;;2.23;;
9392;SDS011;4736;52.508;13.422;2023-03-14T04:57:56;2.40;;;2.30;;
9392;SDS011;4736;52.508;13.422;2023-03-14T05:01:03;2.50;;;2.40;;
9392;SDS011;4736;52.508;13.422;2023-03-14T05:04:06;2.50;;;2.50;;
9392;SDS011;4736;52.508;13.422;2023-03-14T05:07:09;2.57;;;2.47;;
9392;SDS011;4736;52.508;13.422;2023-03-14T05:10:15;2.80;;;2.70;;
9392;SDS011;4736;52.508;13.422;2023-03-14T05:13:18;2.60;;;2.60;;
9392;SDS011;4736;52.508;13.422;2023-03-14T05:16:22;2.20;;;2.20;;
9392;SDS011;4736;52.508;13.422;2023-03-14T05:19:26;2.77;;;2.57;;
9392;SDS011;4736;52.508;13.422;2023-03-14T05:22:29;2.70;;;2.60;;
9392;SDS011;4736;52.508;13.422;2023-03-14T05:25:32;3.10;;;3.00;;
9392;SDS011;4736;52.508;13.422;2023-03-14T05:28:35;2.57;;;2.47;;
9392;SDS011;4736;52.508;13.422;2023-03-14T05:31:39;2.80;;;2.80;;
9392;SDS011;4736;52.508;13.422;2023-03-14T05:34:42;2.83;;;2.80;;
9392;SDS011;4736;52.508;13.422;2023-03-14T05:37:45;3.10;;;2.93;;
9392;SDS011;4736;52.508;13.422;2023-03-14T05:40:48;2.63;;;2.53;;
9392;SDS011;4736;52.508;13.422;2023-03-14T05:43:51;2.40;;;2.40;;
9392;SDS011;4736;52.508;13.422;2023-03-14T05:47:00;3.43;;;3.23;;
9392;SDS011;4736;52.508;13.422;2023-03-14T05:50:04;2.53;;;2.43;;
9392;SDS011;4736;52.508;13.422;2023-03-14T05:53:07;2.83;;;2.73;;
9392;SDS011;4736;52.508;13.422;2023-03-14T05:56:10;2.80;;;2.70;;
9392;SDS011;4736;52.508;13.422;2023-03-14T05:59:13;3.00;;;2.90;;
9392;SDS011;4736;52.508;13.422;2023-03-14T06:02:18;2.40;;;2.30;;
9392;SDS011;4736;52.508;13.422;2023-03-14T06:05:21;2.60;;;2.50;;
9392;SDS011;4736;52.508;13.422;2023-03-14T06:08:25;2.60;;;2.60;;
9392;SDS011;4736;52.508;13.422;2023-03-14T06:11:28;2.83;;;2.63;;
9392;SDS011;4736;52.508;13.422;2023-03-14T06:14:31;2.50;;;2.43;;
9392;SDS011;4736;52.508;13.422;2023-03-14T06:17:36;2.70;;;2.70;;
9392;SDS011;4736;52.508;13.422;2023-03-14T06:20:39;2.97;;;2.77;;
9392;SDS011;4736;52.508;13.422;2023-03-14T06:23:44;2.70;;;2.60;;
9392;SDS011;4736;52.508;13.422;2023-03-14T06:26:47;3.10;;;2.90;;
9392;SDS011;4736;52.508;13.422;2023-03-14T06:29:50;2.90;;;2.80;;
9392;SDS011;4736;52.508;13.422;2023-03-14T06:32:55;3.33;;;3.10;;
9392;SDS011;4736;52.508;13.422;2023-03-14T06:35:59;2.80;;;2.63;;
9392;SDS011;4736;52.508;13.422;2023-03-14T06:39:02;2.73;;;2.63;;
9392;SDS011;4736;52.508;13.422;2023-03-14T06:42:06;2.90;;;2.80;;
9392;SDS011;4736;52.508;13.422;2023-03-14T06:45:09;2.63;;;2.60;;
9392;SDS011;4736;52.508;13.422;2023-03-14T06:48:15;4.73;;;3.00;;
9392;SDS011;4736;52.508;13.422;2023-03-14T06:51:20;3.40;;;3.10;;
9392;SDS011;4736;52.508;13.422;2023-03-14T06:54:23;5.63;;;3.00;;
9392;SDS011;4736;52.508;13.422;2023-03-14T06:57:26;3.40;;;3.20;;
9392;SDS011;4736;52.508;13.422;2023-03-14T07:00:30;6.27;;;3.00;;
9392;SDS011;4736;52.508;13.422;2023-03-14T07:03:34;3.37;;;3.17;;
9392;SDS011;4736;52.508;13.422;2023-03-14T07:06:38;2.90;;;2.80;;
9392;SDS011;4736;52.508;13.422;2023-03-14T07:09:45;2.93;;;2.83;;
9392;SDS011;4736;52.508;13.422;2023-03-14T07:12:51;3.20;;;3.10;;
9392;SDS011;4736;52.508;13.422;2023-03-14T07:15:55;3.00;;;2.80;;
9392;SDS011;4736;52.508;13.422;2023-03-14T07:19:00;3.43;;;2.60;;
9392;SDS011;4736;52.508;13.422;2023-03-14T07:22:03;2.93;;;2.83;;
9392;SDS011;4736;52.508;13.422;2023-03-14T07:25:07;3.00;;;2.83;;
9392;SDS011;4736;52.508;13.422;2023-03-14T07:28:15;5.90;;;3.50;;
9392;SDS011;4736;52.508;13.422;2023-03-14T07:31:18;3.57;;;3.37;;
9392;SDS011;4736;52.508;13.422;2023-03-14T07:34:23;3.40;;;2.93;;
9392;SDS011;4736;52.508;13.422;2023-03-14T07:37:26;2.93;;;2.73;;
9392;SDS011;4736;52.508;13.422;2023-03-14T07:40:30;3.10;;;3.00;;
9392;SDS011;4736;52.508;13.422;2023-03-14T07:43:33;3.23;;;3.00;;
9392;SDS011;4736;52.508;13.422;2023-03-14T07:46:38;4.27;;;3.20;;
9392;SDS011;4736;52.508;13.422;2023-03-14T07:49:43;5.20;;;3.03;;
9392;SDS011;4736;52.508;13.422;2023-03-14T07:52:46;3.20;;;3.00;;
9392;SDS011;4736;52.508;13.422;2023-03-14T07:55:50;4.70;;;2.70;;
9392;SDS011;4736;52.508;13.422;2023-03-14T07:58:54;3.40;;;3.10;;
9392;SDS011;4736;52.508;13.422;2023-03-14T08:01:57;2.97;;;2.77;;
9392;SDS011;4736;52.508;13.422;2023-03-14T08:05:02;2.50;;;2.40;;
9392;SDS011;4736;52.508;13.422;2023-03-14T08:08:05;3.33;;;3.00;;
9392;SDS011;4736;52.508;13.422;2023-03-14T08:11:09;3.07;;;2.87;;
9392;SDS011;4736;52.508;13.422;2023-03-14T08:14:12;2.90;;;2.77;;
9392;SDS011;4736;52.508;13.422;2023-03-14T08:17:15;3.73;;;3.20;;
9392;SDS011;4736;52.508;13.422;2023-03-14T08:20:21;2.80;;;2.63;;
9392;SDS011;4736;52.508;13.422;2023-03-14T08:23:26;2.90;;;2.70;;
9392;SDS011;4736;52.508;13.422;2023-03-14T08:26:29;5.80;;;3.33;;
9392;SDS011;4736;52.508;13.422;2023-03-14T08:29:33;3.23;;;3.03;;
9392;SDS011;4736;52.508;13.422;2023-03-14T08:32:40;3.40;;;2.70;;
9392;SDS011;4736;52.508;13.422;2023-03-14T08:35:45;3.07;;;2.90;;
9392;SDS011;4736;52.508;13.422;2023-03-14T08:38:50;3.00;;;2.80;;
9392;SDS011;4736;52.508;13.422;2023-03-14T08:41:53;4.30;;;3.20;;
9392;SDS011;4736;52.508;13.422;2023-03-14T08:44:57;4.00;;;2.80;;
9392;SDS011;4736;52.508;13.422;2023-03-14T08:48:00;2.77;;;2.67;;
9392;SDS011;4736;52.508;13.422;2023-03-14T08:51:08;3.27;;;3.10;;
9392;SDS011;4736;52.508;13.422;2023-03-14T08:54:13;3.27;;;3.07;;
9392;SDS011;4736;52.508;13.422;2023-03-14T08:57:17;3.57;;;2.83;;
9392;SDS011;4736;52.508;13.422;2023-03-14T09:00:21;3.00;;;2.77;;
9392;SDS011;4736;52.508;13.422;2023-03-14T09:03:26;3.53;;;3.10;;
9392;SDS011;4736;52.508;13.422;2023-03-14T09:06:36;3.77;;;2.80;;
9392;SDS011;4736;52.508;13.422;2023-03-14T09:09:49;6.30;;;4.13;;
9392;SDS011;4736;52.508;13.422;2023-03-14T09:12:52;2.80;;;2.60;;
9392;SDS011;4736;52.508;13.422;2023-03-14T09:15:56;4.77;;;3.30;;
9392;SDS011;4736;52.508;13.422;2023-03-14T09:19:02;3.13;;;2.93;;
9392;SDS011;4736;52.508;13.422;2023-03-14T09:22:07;7.47;;;3.57;;
9392;SDS011;4736;52.508;13.422;2023-03-14T09:25:10;3.93;;;3.53;;
9392;SDS011;4736;52.508;13.422;2023-03-14T09:28:16;5.50;;;3.50;;
9392;SDS011;4736;52.508;13.422;2023-03-14T09:31:19;3.10;;;2.90;;
9392;SDS011;4736;52.508;13.422;2023-03-14T09:34:23;4.20;;;2.87;;
9392;SDS011;4736;52.508;13.422;2023-03-14T09:37:27;2.80;;;2.60;;
9392;SDS011;4736;52.508;13.422;2023-03-14T09:40:31;4.07;;;2.60;;
9392;SDS011;4736;52.508;13.422;2023-03-14T09:47:12;3.03;;;2.73;;
9392;SDS011;4736;52.508;13.422;2023-03-14T09:50:21;2.87;;;2.77;;
9392;SDS011;4736;52.508;13.422;2023-03-14T09:53:28;2.77;;;2.33;;
9392;SDS011;4736;52.508;13.422;2023-03-14T09:56:39;2.77;;;2.47;;
9392;SDS011;4736;52.508;13.422;2023-03-14T09:59:43;2.73;;;2.53;;
9392;SDS011;4736;52.508;13.422;2023-03-14T10:02:50;2.47;;;2.37;;
9392;SDS011;4736;52.508;13.422;2023-03-14T10:05:56;3.20;;;3.00;;
9392;SDS011;4736;52.508;13.422;2023-03-14T10:09:01;2.77;;;2.50;;
9392;SDS011;4736;52.508;13.422;2023-03-14T10:12:07;5.30;;;4.73;;
9392;SDS011;4736;52.508;13.422;2023-03-14T10:15:12;2.67;;;2.57;;
9392;SDS011;4736;52.508;13.422;2023-03-14T10:18:19;2.67;;;2.50;;
9392;SDS011;4736;52.508;13.422;2023-03-14T10:21:27;3.00;;;2.83;;
9392;SDS011;4736;52.508;13.422;2023-03-14T10:24:33;2.53;;;2.43;;
9392;SDS011;4736;52.508;13.422;2023-03-14T10:27:37;2.43;;;2.33;;
9392;SDS011;4736;52.508;13.422;2023-03-14T10:30:44;3.17;;;2.37;;
9392;SDS011;4736;52.508;13.422;2023-03-14T10:33:57;5.00;;;2.97;;
9392;SDS011;4736;52.508;13.422;2023-03-14T10:37:04;2.63;;;2.53;;
9392;SDS011;4736;52.508;13.422;2023-03-14T10:40:13;2.53;;;2.40;;
9392;SDS011;4736;52.508;13.422;2023-03-14T10:43:17;2.70;;;2.60;;
9392;SDS011;4736;52.508;13.422;2023-03-14T10:46:23;3.00;;;2.87;;
9392;SDS011;4736;52.508;13.422;2023-03-14T10:49:29;2.60;;;2.30;;
9392;SDS011;4736;52.508;13.422;2023-03-14T10:52:34;2.70;;;2.60;;
9392;SDS011;4736;52.508;13.422;2023-03-14T10:55:59;4.70;;;2.73;;
9392;SDS011;4736;52.508;13.422;2023-03-14T10:59:06;2.63;;;2.53;;
9392;SDS011;4736;52.508;13.422;2023-03-14T11:02:28;2.73;;;2.60;;
9392;SDS011;4736;52.508;13.422;2023-03-14T11:05:40;2.37;;;2.20;;
9392;SDS011;4736;52.508;13.422;2023-03-14T11:08:47;3.27;;;2.33;;
9392;SDS011;4736;52.508;13.422;2023-03-14T11:11:58;2.40;;;2.27;;
9392;SDS011;4736;52.508;13.422;2023-03-14T11:15:09;2.50;;;2.40;;
9392;SDS011;4736;52.508;13.422;2023-03-14T11:21:58;2.50;;;2.40;;
9392;SDS011;4736;52.508;13.422;2023-03-14T11:25:13;2.43;;;2.33;;
9392;SDS011;4736;52.508;13.422;2023-03-14T11:28:26;2.40;;;2.40;;
9392;SDS011;4736;52.508;13.422;2023-03-14T11:31:38;2.07;;;2.07;;
9392;SDS011;4736;52.508;13.422;2023-03-14T11:34:48;3.23;;;2.93;;
9392;SDS011;4736;52.508;13.422;2023-03-14T11:37:55;3.17;;;2.60;;
9392;SDS011;4736;52.508;13.422;2023-03-14T11:41:09;2.50;;;2.17;;
9392;SDS011;4736;52.508;13.422;2023-03-14T11:44:19;3.00;;;2.47;;
9392;SDS011;4736;52.508;13.422;2023-03-14T11:47:25;2.30;;;2.20;;
9392;SDS011;4736;52.508;13.422;2023-03-14T11:50:32;2.20;;;2.10;;
9392;SDS011;4736;52.508;13.422;2023-03-14T11:53:40;2.57;;;2.37;;
9392;SDS011;4736;52.508;13.422;2023-03-14T11:56:51;4.40;;;4.10;;
9392;SDS011;4736;52.508;13.422;2023-03-14T11:59:59;2.30;;;2.30;;
9392;SDS011;4736;52.508;13.422;2023-03-14T12:03:14;2.80;;;2.63;;
9392;SDS011;4736;52.508;13.422;2023-03-14T12:06:24;2.80;;;2.60;;
9392;SDS011;4736;52.508;13.422;2023-03-14T12:09:30;2.60;;;2.40;;
9392;SDS011;4736;52.508;13.422;2023-03-14T12:12:34;2.07;;;2.07;;
9392;SDS011;4736;52.508;13.422;2023-03-14T12:15:40;3.13;;;2.60;;
9392;SDS011;4736;52.508;13.422;2023-03-14T12:18:49;2.60;;;2.50;;
9392;SDS011;4736;52.508;13.422;2023-03-14T12:21:54;2.50;;;2.40;;
9392;SDS011;4736;52.508;13.422;2023-03-14T12:25:02;2.83;;;2.63;;
9392;SDS011;4736;52.508;13.422;2023-03-14T12:28:18;3.60;;;3.30;;
9392;SDS011;4736;52.508;13.422;2023-03-14T12:31:37;2.47;;;2.37;;
9392;SDS011;4736;52.508;13.422;2023-03-14T12:34:44;3.50;;;3.30;;
9392;SDS011;4736;52.508;13.422;2023-03-14T12:37:47;3.30;;;3.10;;
9392;SDS011;4736;52.508;13.422;2023-03-14T12:40:57;3.83;;;3.63;;
9392;SDS011;4736;52.508;13.422;2023-03-14T12:51:12;3.57;;;3.30;;
9392;SDS011;4736;52.508;13.422;2023-03-14T12:54:26;2.40;;;2.30;;
9392;SDS011;4736;52.508;13.422;2023-03-14T12:57:40;4.83;;;4.47;;
9392;SDS011;4736;52.508;13.422;2023-03-14T13:00:50;2.43;;;2.33;;
9392;SDS011;4736;52.508;13.422;2023-03-14T13:04:03;2.80;;;2.70;;
9392;SDS011;4736;52.508;13.422;2023-03-14T13:07:10;2.50;;;2.50;;
9392;SDS011;4736;52.508;13.422;2023-03-14T13:10:18;2.77;;;2.60;;
9392;SDS011;4736;52.508;13.422;2023-03-14T13:13:24;2.20;;;2.20;;
9392;SDS011;4736;52.508;13.422;2023-03-14T13:16:29;2.90;;;2.03;;
9392;SDS011;4736;52.508;13.422;2023-03-14T13:19:33;2.20;;;2.20;;
9392;SDS011;4736;52.508;13.422;2023-03-14T13:22:37;2.40;;;2.30;;
9392;SDS011;4736;52.508;13.422;2023-03-14T13:25:40;2.27;;;2.17;;
9392;SDS011;4736;52.508;13.422;2023-03-14T13:28:44;4.53;;;2.20;;
9392;SDS011;4736;52.508;13.422;2023-03-14T13:31:48;2.23;;;2.13;;
9392;SDS011;4736;52.508;13.422;2023-03-14T13:34:56;2.10;;;2.10;;
9392;SDS011;4736;52.508;13.422;2023-03-14T13:38:00;2.93;;;2.83;;
9392;SDS011;4736;52.508;13.422;2023-03-14T13:41:12;3.30;;;2.47;;
9392;SDS011;4736;52.508;13.422;2023-03-14T13:44:16;3.10;;;3.00;;
9392;SDS011;4736;52.508;13.422;2023-03-14T13:47:24;3.07;;;2.97;;
9392;SDS011;4736;52.508;13.422;2023-03-14T13:50:30;2.60;;;2.50;;
9392;SDS011;4736;52.508;13.422;2023-03-14T13:53:41;2.40;;;2.40;;
9392;SDS011;4736;52.508;13.422;2023-03-14T13:56:46;2.50;;;2.43;;
9392;SDS011;4736;52.508;13.422;2023-03-14T13:59:59;2.00;;;2.00;;
9392;SDS011;4736;52.508;13.422;2023-03-14T14:03:08;2.20;;;2.10;;
9392;SDS011;4736;52.508;13.422;2023-03-14T14:06:21;2.10;;;2.10;;
9392;SDS011;4736;52.508;13.422;2023-03-14T14:09:30;3.80;;;2.03;;
9392;SDS011;4736;52.508;13.422;2023-03-14T14:12:40;2.40;;;2.30;;
9392;SDS011;4736;52.508;13.422;2023-03-14T14:15:47;2.90;;;2.80;;
9392;SDS011;4736;52.508;13.422;2023-03-14T14:18:53;2.40;;;2.30;;
9392;SDS011;4736;52.508;13.422;2023-03-14T14:21:59;2.30;;;2.30;;
9392;SDS011;4736;52.508;13.422;2023-03-14T14:25:04;2.30;;;2.30;;
9392;SDS011;4736;52.508;13.422;2023-03-14T14:28:14;2.30;;;2.30;;
9392;SDS011;4736;52.508;13.422;2023-03-14T14:31:20;2.00;;;2.00;;
9392;SDS011;4736;52.508;13.422;2023-03-14T14:34:26;2.40;;;2.20;;
9392;SDS011;4736;52.508;13.422;2023-03-14T14:37:31;2.40;;;2.40;;
9392;SDS011;4736;52.508;13.422;2023-03-14T14:40:36;2.07;;;2.07;;
9392;SDS011;4736;52.508;13.422;2023-03-14T14:43:46;2.97;;;2.73;;
9392;SDS011;4736;52.508;13.422;2023-03-14T14:46:50;2.47;;;2.47;;
9392;SDS011;4736;52.508;13.422;2023-03-14T14:49:54;2.17;;;2.10;;
9392;SDS011;4736;52.508;13.422;2023-03-14T14:53:03;2.03;;;2.03;;
9392;SDS011;4736;52.508;13.422;2023-03-14T14:56:26;2.10;;;2.00;;
9392;SDS011;4736;52.508;13.422;2023-03-14T14:59:30;2.07;;;2.00;;
9392;SDS011;4736;52.508;13.422;2023-03-14T15:02:35;2.40;;;2.30;;
9392;SDS011;4736;52.508;13.422;2023-03-14T15:05:45;1.90;;;1.90;;
9392;SDS011;4736;52.508;13.422;2023-03-14T15:08:49;1.80;;;1.80;;
9392;SDS011;4736;52.508;13.422;2023-03-14T15:11:52;2.07;;;1.97;;
9392;SDS011;4736;52.508;13.422;2023-03-14T15:14:56;2.37;;;2.27;;
9392;SDS011;4736;52.508;13.422;2023-03-14T15:17:59;2.23;;;2.10;;
9392;SDS011;4736;52.508;13.422;2023-03-14T15:21:02;2.00;;;2.00;;
9392;SDS011;4736;52.508;13.422;2023-03-14T15:24:08;2.47;;;2.20;;
9392;SDS011;4736;52.508;13.422;2023-03-14T15:27:12;2.60;;;2.43;;
9392;SDS011;4736;52.508;13.422;2023-03-14T15:30:17;2.33;;;2.23;;
9392;SDS011;4736;52.508;13.422;2023-03-14T15:33:21;2.00;;;2.00;;
9392;SDS011;4736;52.508;13.422;2023-03-14T15:36:25;2.73;;;2.60;;
9392;SDS011;4736;52.508;13.422;2023-03-14T15:39:31;2.43;;;2.43;;
9392;SDS011;4736;52.508;13.422;2023-03-14T15:42:34;2.40;;;2.40;;
9392;SDS011;4736;52.508;13.422;2023-03-14T15:45:38;2.50;;;2.40;;
9392;SDS011;4736;52.508;13.422;2023-03-14T15:48:44;2.30;;;2.30;;
9392;SDS011;4736;52.508;13.422;2023-03-14T15:51:48;2.30;;;2.30;;
9392;SDS011;4736;52.508;13.422;2023-03-14T15:54:52;2.40;;;2.40;;
9392;SDS011;4736;52.508;13.422;2023-03-14T15:57:55;2.40;;;2.30;;
9392;SDS011;4736;52.508;13.422;2023-03-14T16:01:00;3.03;;;2.93;;
9392;SDS011;4736;52.508;13.422;2023-03-14T16:04:04;2.97;;;2.97;;
9392;SDS011;4736;52.508;13.422;2023-03-14T16:07:07;3.10;;;2.90;;
9392;SDS011;4736;52.508;13.422;2023-03-14T16:10:15;2.77;;;2.77;;
9392;SDS011;4736;52.508;13.422;2023-03-14T16:13:21;3.00;;;2.90;;
9392;SDS011;4736;52.508;13.422;2023-03-14T16:16:24;3.63;;;3.53;;
9392;SDS011;4736;52.508;13.422;2023-03-14T16:19:27;3.00;;;2.90;;
9392;SDS011;4736;52.508;13.422;2023-03-14T16:22:32;2.70;;;2.60;;
9392;SDS011;4736;52.508;13.422;2023-03-14T16:25:38;3.00;;;2.90;;
9392;SDS011;4736;52.508;13.422;2023-03-14T16:28:41;2.83;;;2.73;;
9392;SDS011;4736;52.508;13.422;2023-03-14T16:31:45;2.50;;;2.50;;
9392;SDS011;4736;52.508;13.422;2023-03-14T16:34:50;2.63;;;2.53;;
9392;SDS011;4736;52.508;13.422;2023-03-14T16:37:53;2.80;;;2.80;;
9392;SDS011;4736;52.508;13.422;2023-03-14T16:41:01;2.80;;;2.80;;
9392;SDS011;4736;52.508;13.422;2023-03-14T16:44:06;3.10;;;3.10;;
9392;SDS011;4736;52.508;13.422;2023-03-14T16:47:09;3.53;;;3.50;;
9392;SDS011;4736;52.508;13.422;2023-03-14T16:50:12;2.80;;;2.80;;
9392;SDS011;4736;52.508;13.422;2023-03-14T16:53:16;3.47;;;3.37;;
9392;SDS011;4736;52.508;13.422;2023-03-14T16:56:20;3.20;;;3.07;;
9392;SDS011;4736;52.508;13.422;2023-03-14T16:59:24;3.07;;;3.07;;
9392;SDS011;4736;52.508;13.422;2023-03-14T17:02:29;3.10;;;3.00;;
9392;SDS011;4736;52.508;13.422;2023-03-14T17:05:32;3.20;;;3.20;;
9392;SDS011;4736;52.508;13.422;2023-03-14T17:08:35;3.57;;;3.40;;
9392;SDS011;4736;52.508;13.422;2023-03-14T17:11:40;3.67;;;3.30;;
9392;SDS011;4736;52.508;13.422;2023-03-14T17:14:43;3.87;;;3.70;;
9392;SDS011;4736;52.508;13.422;2023-03-14T17:17:46;3.80;;;3.60;;
9392;SDS011;4736;52.508;13.422;2023-03-14T17:20:52;3.67;;;3.57;;
9392;SDS011;4736;52.508;13.422;2023-03-14T17:23:55;3.53;;;3.33;;
9392;SDS011;4736;52.508;13.422;2023-03-14T17:27:00;3.67;;;3.57;;
9392;SDS011;4736;52.508;13.422;2023-03-14T17:30:04;3.87;;;3.70;;
9392;SDS011;4736;52.508;13.422;2023-03-14T17:33:08;4.60;;;4.40;;
9392;SDS011;4736;52.508;13.422;2023-03-14T17:36:11;4.30;;;4.00;;
9392;SDS011;4736;52.508;13.422;2023-03-14T17:39:15;3.70;;;3.70;;
9392;SDS011;4736;52.508;13.422;2023-03-14T17:42:20;4.50;;;4.07;;
9392;SDS011;4736;52.508;13.422;2023-03-14T17:45:23;8.03;;;7.27;;
9392;SDS011;4736;52.508;13.422;2023-03-14T17:48:26;4.50;;;4.30;;
9392;SDS011;4736;52.508;13.422;2023-03-14T17:51:30;5.03;;;4.80;;
9392;SDS011;4736;52.508;13.422;2023-03-14T17:54:33;5.10;;;4.70;;
9392;SDS011;4736;52.508;13.422;2023-03-14T17:57:37;5.00;;;4.50;;
9392;SDS011;4736;52.508;13.422;2023-03-14T18:00:44;4.67;;;4.47;;
9392;SDS011;4736;52.508;13.422;2023-03-14T18:03:47;4.87;;;4.43;;
9392;SDS011;4736;52.508;13.422;2023-03-14T18:06:56;5.10;;;4.70;;
9392;SDS011;4736;52.508;13.422;2023-03-14T18:09:59;5.13;;;4.37;;
9392;SDS011;4736;52.508;13.422;2023-03-14T18:13:04;4.40;;;4.20;;
9392;SDS011;4736;52.508;13.422;2023-03-14T18:16:07;4.47;;;4.20;;
9392;SDS011;4736;52.508;13.422;2023-03-14T18:19:14;6.13;;;4.73;;
9392;SDS011;4736;52.508;13.422;2023-03-14T18:22:17;4.90;;;4.50;;
9392;SDS011;4736;52.508;13.422;2023-03-14T18:25:22;6.63;;;6.13;;
9392;SDS011;4736;52.508;13.422;2023-03-14T18:28:26;6.43;;;4.97;;
9392;SDS011;4736;52.508;13.422;2023-03-14T18:31:30;5.13;;;4.73;;
9392;SDS011;4736;52.508;13.422;2023-03-14T18:34:35;6.47;;;5.17;;
9392;SDS011;4736;52.508;13.422;2023-03-14T18:37:38;7.83;;;5.10;;
9392;SDS011;4736;52.508;13.422;2023-03-14T18:40:41;5.63;;;5.23;;
9392;SDS011;4736;52.508;13.422;2023-03-14T18:43:46;6.97;;;6.40;;
9392;SDS011;4736;52.508;13.422;2023-03-14T18:46:49;6.70;;;5.77;;
9392;SDS011;4736;52.508;13.422;2023-03-14T18:49:52;9.77;;;5.33;;
9392;SDS011;4736;52.508;13.422;2023-03-14T18:52:55;6.20;;;5.80;;
9392;SDS011;4736;52.508;13.422;2023-03-14T18:56:00;5.83;;;5.03;;
9392;SDS011;4736;52.508;13.422;2023-03-14T18:59:05;11.33;;;5.47;;
9392;SDS011;4736;52.508;13.422;2023-03-14T19:02:09;8.70;;;4.73;;
9392;SDS011;4736;52.508;13.422;2023-03-14T19:05:12;5.63;;;5.03;;
9392;SDS011;4736;52.508;13.422;2023-03-14T19:08:15;6.77;;;4.90;;